Time;durP1;ratioP1;P1;durP2;ratioP2;P2;SDS_P1;SDS_P2;PMS_P1;PMS_P2;Temp;Humidity;BMP_temperature;BMP_pressure;BME280_temperature;BME280_humidity;BME280_pressure;Samples;Min_cycle;Max_cycle;Signal;HPM_P1;HPM_P2
2023/05/05 00:00:35;;;;;;;;;;;22.70;51.30;;;;;;1598768;72;755;-67
2023/05/05 00:02:37;;;;;;;;;;;22.60;51.20;;;;;;1595906;74;1929;-67
2023/05/05 00:04:39;;;;;;;;;;;22.60;51.40;;;;;;1594609;72;1246;-67
2023/05/05 00:06:41;;;;;;;;;;;22.60;51.60;;;;;;1594215;72;800;-67
2023/05/05 00:08:42;;;;;;;;;;;22.60;51.80;;;;;;1602403;72;1532;-67
2023/05/05 00:10:45;;;;;;;;;;;22.60;51.70;;;;;;1605721;72;792;-67
2023/05/05 00:12:47;;;;;;;;;;;22.60;51.80;;;;;;1608435;72;773;-67
2023/05/05 00:14:49;;;;;;;;;;;22.60;52.00;;;;;;1594430;72;1152;-67
2023/05/05 00:16:51;;;;;;;;;;;22.50;51.80;;;;;;1598770;72;698;-68
2023/05/05 00:18:53;;;;;;;;;;;22.50;52.00;;;;;;1598676;72;781;-67
2023/05/05 00:20:54;;;;;;;;;;;22.60;52.10;;;;;;1593141;72;802;-67
2023/05/05 00:22:56;;;;;;;;;;;22.60;52.20;;;;;;1596118;72;1933;-66
2023/05/05 00:24:58;;;;;;;;;;;22.60;52.80;;;;;;1602172;72;1182;-66
2023/05/05 00:27:01;;;;;;;;;;;22.50;52.70;;;;;;1611958;72;724;-66
2023/05/05 00:29:02;;;;;;;;;;;22.50;52.80;;;;;;1588198;72;776;-66
2023/05/05 00:31:05;;;;;;;;;;;22.50;52.90;;;;;;1604005;72;793;-67
2023/05/05 00:33:07;;;;;;;;;;;22.50;52.80;;;;;;1595914;73;666;-68
2023/05/05 00:35:09;;;;;;;;;;;22.60;52.60;;;;;;1600184;72;1334;-69
2023/05/05 00:37:11;;;;;;;;;;;22.50;53.20;;;;;;1596059;72;673;-68
2023/05/05 00:39:12;;;;;;;;;;;22.50;53.50;;;;;;1596361;72;739;-68
2023/05/05 00:41:14;;;;;;;;;;;22.40;53.60;;;;;;1602223;72;795;-67
2023/05/05 00:43:16;;;;;;;;;;;22.50;53.90;;;;;;1601044;72;1932;-66
2023/05/05 00:45:18;;;;;;;;;;;22.30;53.90;;;;;;1605336;72;1166;-68
2023/05/05 00:47:20;;;;;;;;;;;22.40;53.90;;;;;;1602861;72;780;-67
2023/05/05 00:49:22;;;;;;;;;;;22.50;53.70;;;;;;1604056;72;1453;-67
2023/05/05 00:51:24;;;;;;;;;;;22.50;53.70;;;;;;1595022;72;743;-68
2023/05/05 00:53:26;;;;;;;;;;;22.60;53.50;;;;;;1612589;72;746;-68
2023/05/05 00:55:28;;;;;;;;;;;22.60;53.40;;;;;;1602744;72;1237;-68
2023/05/05 00:57:31;;;;;;;;;;;22.60;53.10;;;;;;1611737;72;768;-68
2023/05/05 00:59:33;;;;;;;;;;;22.60;52.80;;;;;;1588254;72;642;-68
2023/05/05 01:01:35;;;;;;;;;;;22.60;52.70;;;;;;1592860;72;1921;-69
2023/05/05 01:03:39;;;;;;;;;;;22.70;52.70;;;;;;1604457;72;1288;-69
2023/05/05 01:05:42;;;;;;;;;;;22.70;52.50;;;;;;1595170;72;1282;-68
2023/05/05 01:07:47;;;;;;;;;;;22.70;52.30;;;;;;1568129;72;1021;-67
2023/05/05 01:09:49;;;;;;;;;;;22.70;52.30;;;;;;1599249;72;760;-69
2023/05/05 01:11:52;;;;;;;;;;;22.70;52.30;;;;;;1593160;72;780;-68
2023/05/05 01:13:56;;;;;;;;;;;22.70;52.70;;;;;;1625788;72;1160;-66
2023/05/05 01:16:00;;;;;;;;;;;22.70;53.10;;;;;;1600855;72;756;-67
2023/05/05 01:18:09;;;;;;;;;;;22.70;53.20;;;;;;1584816;72;1424;-67
2023/05/05 01:20:14;;;;;;;;;;;22.60;53.30;;;;;;1594689;72;1075;-69
2023/05/05 01:22:16;;;;;;;;;;;22.70;53.30;;;;;;1601992;72;1940;-67
2023/05/05 01:24:38;;;;;;;;;;;22.60;53.40;;;;;;1598566;72;1160;-67
2023/05/05 01:26:47;;;;;;;;;;;22.50;53.50;;;;;;1595054;72;771;-68
2023/05/05 01:28:51;;;;;;;;;;;22.60;53.40;;;;;;1585781;72;734;-68
2023/05/05 01:30:54;;;;;;;;;;;22.50;53.40;;;;;;1609015;72;1542;-68
2023/05/05 01:32:57;;;;;;;;;;;22.60;53.40;;;;;;1601831;72;1496;-68
2023/05/05 01:35:02;;;;;;;;;;;22.60;53.40;;;;;;1607305;72;1166;-67
2023/05/05 01:37:06;;;;;;;;;;;22.60;53.40;;;;;;1605462;72;742;-67
2023/05/05 01:39:08;;;;;;;;;;;22.60;53.40;;;;;;1606496;72;735;-67
2023/05/05 01:41:20;;;;;;;;;;;22.60;53.40;;;;;;1599106;72;756;-67
2023/05/05 01:43:22;;;;;;;;;;;22.50;53.40;;;;;;1592525;72;1934;-67
2023/05/05 01:45:24;;;;;;;;;;;22.50;53.40;;;;;;1592311;72;1402;-67
2023/05/05 01:47:26;;;;;;;;;;;22.50;53.30;;;;;;1615670;72;770;-67
2023/05/05 01:49:28;;;;;;;;;;;22.60;53.40;;;;;;1604470;72;783;-68
2023/05/05 01:51:30;;;;;;;;;;;22.60;53.30;;;;;;1600996;72;746;-68
2023/05/05 01:53:31;;;;;;;;;;;22.60;53.10;;;;;;1602934;72;799;-68
2023/05/05 01:55:33;;;;;;;;;;;22.60;53.00;;;;;;1586947;72;1135;-68
2023/05/05 01:57:35;;;;;;;;;;;22.70;52.90;;;;;;1595367;72;754;-67
2023/05/05 01:59:40;;;;;;;;;;;22.60;52.60;;;;;;1598865;72;1413;-68
2023/05/05 02:01:43;;;;;;;;;;;22.70;52.60;;;;;;1597705;74;779;-68
2023/05/05 02:03:46;;;;;;;;;;;22.70;52.50;;;;;;1598172;72;1920;-68
2023/05/05 02:05:48;;;;;;;;;;;22.70;52.30;;;;;;1605326;72;756;-68
2023/05/05 02:07:50;;;;;;;;;;;22.70;52.30;;;;;;1595723;72;804;-68
2023/05/05 02:09:51;;;;;;;;;;;22.70;52.20;;;;;;1605904;72;774;-67
2023/05/05 02:11:53;;;;;;;;;;;22.70;52.10;;;;;;1596588;72;815;-68
2023/05/05 02:13:55;;;;;;;;;;;22.70;52.10;;;;;;1609472;72;1446;-67
2023/05/05 02:15:57;;;;;;;;;;;22.80;52.10;;;;;;1592305;72;825;-68
2023/05/05 02:17:59;;;;;;;;;;;22.70;52.20;;;;;;1603124;72;750;-68
2023/05/05 02:20:01;;;;;;;;;;;22.70;52.10;;;;;;1596423;72;747;-68
2023/05/05 02:22:03;;;;;;;;;;;22.70;52.10;;;;;;1600407;72;1930;-68
2023/05/05 02:24:05;;;;;;;;;;;22.70;52.10;;;;;;1602250;72;1183;-67
2023/05/05 02:26:07;;;;;;;;;;;22.70;52.10;;;;;;1592048;72;742;-68
2023/05/05 02:28:10;;;;;;;;;;;22.70;52.10;;;;;;1599140;72;1415;-68
2023/05/05 02:30:14;;;;;;;;;;;22.70;52.20;;;;;;1606603;72;778;-67
2023/05/05 02:32:20;;;;;;;;;;;22.70;52.40;;;;;;1609045;72;729;-66
2023/05/05 02:34:23;;;;;;;;;;;22.70;52.50;;;;;;1599720;72;1496;-67
2023/05/05 02:36:26;;;;;;;;;;;22.60;52.30;;;;;;1609395;71;802;-69
2023/05/05 02:38:28;;;;;;;;;;;22.70;52.50;;;;;;1587635;72;736;-67
2023/05/05 02:40:30;;;;;;;;;;;22.70;52.30;;;;;;1595913;72;629;-68
2023/05/05 02:42:34;;;;;;;;;;;22.70;52.30;;;;;;1598200;72;1935;-67
2023/05/05 02:44:36;;;;;;;;;;;22.70;52.30;;;;;;1601695;72;1150;-68
2023/05/05 02:46:38;;;;;;;;;;;22.70;52.30;;;;;;1601611;72;763;-67
2023/05/05 02:48:40;;;;;;;;;;;22.70;52.40;;;;;;1590586;72;696;-68
2023/05/05 02:50:42;;;;;;;;;;;22.60;52.40;;;;;;1586278;72;736;-66
2023/05/05 02:52:43;;;;;;;;;;;22.70;52.40;;;;;;1591929;74;749;-67
2023/05/05 02:54:45;;;;;;;;;;;22.70;52.30;;;;;;1595130;72;1169;-67
2023/05/05 02:56:48;;;;;;;;;;;22.70;52.40;;;;;;1604705;72;1489;-67
2023/05/05 02:59:08;;;;;;;;;;;22.70;52.40;;;;;;1600388;72;754;-66
2023/05/05 03:01:28;;;;;;;;;;;22.60;52.50;;;;;;1599679;72;638;-67
2023/05/05 03:03:30;;;;;;;;;;;22.70;52.40;;;;;;1608333;72;1928;-67
2023/05/05 03:05:34;;;;;;;;;;;22.70;52.30;;;;;;1599188;72;1093;-67
2023/05/05 03:07:40;;;;;;;;;;;22.60;52.50;;;;;;1587227;72;642;-68
2023/05/05 03:09:46;;;;;;;;;;;22.70;52.50;;;;;;1606777;72;1401;-67
2023/05/05 03:11:49;;;;;;;;;;;22.60;52.50;;;;;;1602288;72;649;-66
2023/05/05 03:13:53;;;;;;;;;;;22.70;52.50;;;;;;1603369;72;1278;-67
2023/05/05 03:15:54;;;;;;;;;;;22.70;52.40;;;;;;1558715;74;798;-69
2023/05/05 03:17:56;;;;;;;;;;;22.70;52.50;;;;;;1600019;73;712;-69
2023/05/05 03:19:58;;;;;;;;;;;22.70;52.70;;;;;;1608938;72;783;-66
2023/05/05 03:22:00;;;;;;;;;;;22.60;52.70;;;;;;1596694;72;692;-66
2023/05/05 03:24:04;;;;;;;;;;;22.60;52.60;;;;;;1607084;72;1939;-67
2023/05/05 03:26:05;;;;;;;;;;;22.60;52.60;;;;;;1599892;72;1721;-66
2023/05/05 03:28:07;;;;;;;;;;;22.60;52.80;;;;;;1599525;72;796;-66
2023/05/05 03:30:09;;;;;;;;;;;22.60;52.70;;;;;;1612772;72;767;-66
2023/05/05 03:32:11;;;;;;;;;;;22.60;52.80;;;;;;1604201;74;779;-66
2023/05/05 03:34:13;;;;;;;;;;;22.60;52.80;;;;;;1593620;72;1123;-66
2023/05/05 03:36:15;;;;;;;;;;;22.60;52.60;;;;;;1602384;72;725;-67
2023/05/05 03:38:17;;;;;;;;;;;22.60;52.40;;;;;;1597025;72;1438;-65
2023/05/05 03:40:19;;;;;;;;;;;22.70;52.50;;;;;;1602601;72;774;-66
2023/05/05 03:42:21;;;;;;;;;;;22.60;52.40;;;;;;1594518;72;707;-66
2023/05/05 03:44:23;;;;;;;;;;;22.70;52.30;;;;;;1602301;72;1944;-68
2023/05/05 03:46:25;;;;;;;;;;;22.70;52.40;;;;;;1589064;72;774;-69
2023/05/05 03:48:27;;;;;;;;;;;22.70;52.30;;;;;;1600986;72;623;-68
2023/05/05 03:50:28;;;;;;;;;;;22.70;52.30;;;;;;1600766;72;677;-69
2023/05/05 03:52:31;;;;;;;;;;;22.70;52.30;;;;;;1597482;72;1402;-69
2023/05/05 03:54:33;;;;;;;;;;;22.60;52.30;;;;;;1594334;72;1168;-68
2023/05/05 03:56:34;;;;;;;;;;;22.60;52.50;;;;;;1613273;72;756;-69
2023/05/05 03:58:36;;;;;;;;;;;22.60;52.50;;;;;;1602764;72;958;-68
2023/05/05 04:00:38;;;;;;;;;;;22.60;52.40;;;;;;1588805;72;753;-68
2023/05/05 04:02:40;;;;;;;;;;;22.60;52.60;;;;;;1598741;72;1942;-68
2023/05/05 04:04:42;;;;;;;;;;;22.60;52.40;;;;;;1600150;72;1166;-69
2023/05/05 04:06:44;;;;;;;;;;;22.60;52.30;;;;;;1596123;72;1434;-68
2023/05/05 04:08:46;;;;;;;;;;;22.60;52.30;;;;;;1590410;72;742;-68
2023/05/05 04:10:48;;;;;;;;;;;22.60;52.40;;;;;;1607357;72;768;-69
2023/05/05 04:12:49;;;;;;;;;;;22.60;52.60;;;;;;1608629;72;760;-68
2023/05/05 04:14:51;;;;;;;;;;;22.60;52.50;;;;;;1611267;70;2085;-72
2023/05/05 04:16:53;;;;;;;;;;;22.60;52.40;;;;;;1615069;73;687;-74
2023/05/05 04:18:55;;;;;;;;;;;22.70;52.70;;;;;;1606987;73;791;-73
2023/05/05 04:20:57;;;;;;;;;;;22.70;52.50;;;;;;1611037;73;1491;-70
2023/05/05 04:22:59;;;;;;;;;;;22.70;52.50;;;;;;1607003;72;1945;-71
2023/05/05 04:25:01;;;;;;;;;;;22.70;52.40;;;;;;1617251;72;1279;-73
2023/05/05 04:27:03;;;;;;;;;;;22.70;52.20;;;;;;1612718;72;788;-74
2023/05/05 04:29:04;;;;;;;;;;;22.70;52.30;;;;;;1607604;73;795;-73
2023/05/05 04:31:06;;;;;;;;;;;22.70;52.30;;;;;;1607460;72;751;-73
2023/05/05 04:33:08;;;;;;;;;;;22.70;52.30;;;;;;1610068;73;729;-74
2023/05/05 04:35:10;;;;;;;;;;;22.70;52.50;;;;;;1616761;73;1439;-72
2023/05/05 04:37:12;;;;;;;;;;;22.70;52.80;;;;;;1612222;72;768;-69
2023/05/05 04:39:14;;;;;;;;;;;22.60;52.80;;;;;;1610278;73;760;-75
2023/05/05 04:41:16;;;;;;;;;;;22.60;52.80;;;;;;1594909;73;676;-72
2023/05/05 04:43:18;;;;;;;;;;;22.60;52.60;;;;;;1611146;72;1944;-72
2023/05/05 04:45:20;;;;;;;;;;;22.70;52.60;;;;;;1609661;72;1182;-72
2023/05/05 04:47:22;;;;;;;;;;;22.60;52.60;;;;;;1598187;73;753;-73
2023/05/05 04:49:24;;;;;;;;;;;22.60;52.70;;;;;;1603689;73;652;-72
2023/05/05 04:51:26;;;;;;;;;;;22.70;52.70;;;;;;1606846;72;691;-72
2023/05/05 04:53:28;;;;;;;;;;;22.70;52.60;;;;;;1614274;72;664;-71
2023/05/05 04:55:30;;;;;;;;;;;22.70;52.70;;;;;;1610859;72;1166;-73
2023/05/05 04:57:32;;;;;;;;;;;22.70;52.70;;;;;;1611368;73;749;-71
2023/05/05 04:59:34;;;;;;;;;;;22.70;52.70;;;;;;1603194;73;744;-72
2023/05/05 05:01:36;;;;;;;;;;;22.70;52.60;;;;;;1601710;72;746;-70
2023/05/05 05:03:38;;;;;;;;;;;22.70;52.40;;;;;;1607261;72;1925;-71
2023/05/05 05:06:58;;;;;;;;;;;22.70;52.90;;;;;;1593729;72;1147;-69
2023/05/05 05:09:00;;;;;;;;;;;22.70;53.10;;;;;;1581386;74;765;-67
2023/05/05 05:11:01;;;;;;;;;;;22.60;52.90;;;;;;1580626;74;761;-66
2023/05/05 05:13:03;;;;;;;;;;;22.50;53.00;;;;;;1575146;74;731;-67
2023/05/05 05:15:06;;;;;;;;;;;22.50;53.00;;;;;;1572810;74;738;-69
2023/05/05 05:17:08;;;;;;;;;;;22.50;53.00;;;;;;1582312;74;1178;-68
2023/05/05 05:19:09;;;;;;;;;;;22.50;52.90;;;;;;1562804;74;803;-70
2023/05/05 05:21:12;;;;;;;;;;;22.50;52.70;;;;;;1572291;74;688;-68
2023/05/05 05:23:13;;;;;;;;;;;22.50;52.60;;;;;;1564787;73;715;-67
2023/05/05 05:25:15;;;;;;;;;;;22.50;52.60;;;;;;1564192;73;1926;-66
2023/05/05 05:27:17;;;;;;;;;;;22.60;52.50;;;;;;1574170;73;763;-70
2023/05/05 05:29:19;;;;;;;;;;;22.50;52.40;;;;;;1567080;74;596;-66
2023/05/05 05:31:21;;;;;;;;;;;22.50;52.50;;;;;;1576260;74;704;-65
2023/05/05 05:33:23;;;;;;;;;;;22.50;52.70;;;;;;1577967;73;775;-66
2023/05/05 05:35:25;;;;;;;;;;;22.50;52.80;;;;;;1576419;73;1143;-66
2023/05/05 05:37:30;;;;;;;;;;;22.50;53.60;;;;;;1574640;73;792;-66
2023/05/05 05:39:32;;;;;;;;;;;22.60;54.70;;;;;;1579683;74;631;-66
2023/05/05 05:41:34;;;;;;;;;;;22.80;55.20;;;;;;1567751;73;768;-67
2023/05/05 05:43:36;;;;;;;;;;;23.00;55.00;;;;;;1567498;74;683;-69
2023/05/05 05:45:37;;;;;;;;;;;23.10;53.50;;;;;;1579847;73;1922;-66
2023/05/05 05:47:39;;;;;;;;;;;23.10;54.20;;;;;;1566080;73;741;-66
2023/05/05 05:49:41;;;;;;;;;;;23.20;53.80;;;;;;1570652;74;1413;-66
2023/05/05 05:51:43;;;;;;;;;;;23.40;53.40;;;;;;1579178;73;686;-66
2023/05/05 05:53:45;;;;;;;;;;;23.50;52.80;;;;;;1573784;73;760;-66
2023/05/05 05:55:47;;;;;;;;;;;23.60;52.20;;;;;;1579920;73;1152;-67
2023/05/05 05:57:49;;;;;;;;;;;23.60;51.40;;;;;;1578026;73;656;-67
2023/05/05 05:59:51;;;;;;;;;;;23.60;50.90;;;;;;1580319;73;724;-67
2023/05/05 06:01:52;;;;;;;;;;;23.50;50.70;;;;;;1567234;73;618;-68
2023/05/05 06:03:54;;;;;;;;;;;23.40;50.50;;;;;;1566868;74;728;-68
2023/05/05 06:05:57;;;;;;;;;;;23.30;50.50;;;;;;1581371;74;1928;-68
2023/05/05 06:07:59;;;;;;;;;;;23.30;50.60;;;;;;1588700;74;770;-68
2023/05/05 06:10:01;;;;;;;;;;;23.30;50.70;;;;;;1571722;74;727;-68
2023/05/05 06:12:03;;;;;;;;;;;23.30;50.60;;;;;;1578611;73;744;-67
2023/05/05 06:14:05;;;;;;;;;;;23.40;50.60;;;;;;1581731;73;821;-68
2023/05/05 06:16:07;;;;;;;;;;;23.50;50.60;;;;;;1580529;74;1203;-66
2023/05/05 06:18:09;;;;;;;;;;;23.50;50.40;;;;;;1580735;74;765;-66
2023/05/05 06:20:12;;;;;;;;;;;23.40;50.50;;;;;;1583478;73;709;-66
2023/05/05 06:22:14;;;;;;;;;;;23.50;51.00;;;;;;1586309;73;778;-66
2023/05/05 06:24:16;;;;;;;;;;;23.60;51.00;;;;;;1587977;73;813;-67
2023/05/05 06:26:18;;;;;;;;;;;23.50;51.00;;;;;;1588898;73;1956;-66
2023/05/05 06:28:20;;;;;;;;;;;23.60;51.00;;;;;;1586247;74;728;-67
2023/05/05 06:30:22;;;;;;;;;;;23.60;51.00;;;;;;1587129;74;745;-66
2023/05/05 06:32:24;;;;;;;;;;;23.60;51.00;;;;;;1589191;74;822;-68
2023/05/05 06:34:26;;;;;;;;;;;23.60;50.80;;;;;;1584089;73;774;-67
2023/05/05 06:36:28;;;;;;;;;;;23.70;50.70;;;;;;1583717;73;1167;-69
2023/05/05 06:38:29;;;;;;;;;;;23.70;50.70;;;;;;1580593;73;742;-66
2023/05/05 06:40:31;;;;;;;;;;;23.80;50.70;;;;;;1585863;73;685;-67
2023/05/05 06:42:34;;;;;;;;;;;23.80;50.50;;;;;;1578230;74;739;-68
2023/05/05 06:44:36;;;;;;;;;;;23.90;50.40;;;;;;1582320;74;1469;-69
2023/05/05 06:46:38;;;;;;;;;;;23.90;50.20;;;;;;1586467;74;1950;-67
2023/05/05 06:48:40;;;;;;;;;;;24.00;49.90;;;;;;1587669;74;774;-67
2023/05/05 06:50:42;;;;;;;;;;;24.10;49.80;;;;;;1581131;74;738;-66
2023/05/05 06:52:44;;;;;;;;;;;24.20;49.60;;;;;;1588698;73;827;-67
2023/05/05 06:54:46;;;;;;;;;;;24.30;49.50;;;;;;1593050;74;768;-67
2023/05/05 06:56:47;;;;;;;;;;;24.20;49.30;;;;;;1568240;74;1172;-67
2023/05/05 06:58:49;;;;;;;;;;;24.30;49.20;;;;;;1586414;74;1534;-70
2023/05/05 07:00:52;;;;;;;;;;;24.20;49.00;;;;;;1593191;74;740;-67
2023/05/05 07:02:54;;;;;;;;;;;24.40;49.10;;;;;;1579861;74;823;-67
2023/05/05 07:04:56;;;;;;;;;;;24.40;48.90;;;;;;1573666;74;869;-68
2023/05/05 07:06:58;;;;;;;;;;;24.40;48.80;;;;;;1587453;74;1935;-69
2023/05/05 07:09:00;;;;;;;;;;;24.40;48.70;;;;;;1568095;74;767;-70
2023/05/05 07:11:02;;;;;;;;;;;24.40;48.70;;;;;;1560791;74;875;-68
2023/05/05 07:13:04;;;;;;;;;;;24.50;48.60;;;;;;1567510;74;1545;-67
2023/05/05 07:15:06;;;;;;;;;;;24.50;48.60;;;;;;1563476;74;746;-70
2023/05/05 07:17:08;;;;;;;;;;;24.50;48.50;;;;;;1567098;74;1121;-67
2023/05/05 07:19:10;;;;;;;;;;;24.50;48.50;;;;;;1569579;74;750;-66
2023/05/05 07:21:12;;;;;;;;;;;24.50;48.40;;;;;;1571468;74;715;-67
2023/05/05 07:23:13;;;;;;;;;;;24.50;48.30;;;;;;1561109;74;620;-68
2023/05/05 07:25:15;;;;;;;;;;;24.50;48.30;;;;;;1571211;74;1183;-67
2023/05/05 07:27:17;;;;;;;;;;;24.50;48.30;;;;;;1576974;74;1933;-69
2023/05/05 07:29:19;;;;;;;;;;;24.50;48.20;;;;;;1567337;74;734;-65
2023/05/05 07:31:21;;;;;;;;;;;24.60;48.10;;;;;;1573286;74;750;-65
2023/05/05 07:33:23;;;;;;;;;;;24.50;48.10;;;;;;1582353;74;713;-66
2023/05/05 07:35:25;;;;;;;;;;;24.60;48.10;;;;;;1572910;74;1144;-65
2023/05/05 07:37:27;;;;;;;;;;;24.70;48.10;;;;;;1578859;73;756;-67
2023/05/05 07:39:29;;;;;;;;;;;24.60;48.00;;;;;;1580295;73;750;-68
2023/05/05 07:41:31;;;;;;;;;;;24.60;47.90;;;;;;1579060;74;1582;-66
2023/05/05 07:43:32;;;;;;;;;;;24.60;47.90;;;;;;1564756;74;767;-66
2023/05/05 07:45:34;;;;;;;;;;;24.60;47.90;;;;;;1568780;74;1134;-65
2023/05/05 07:47:36;;;;;;;;;;;24.60;47.90;;;;;;1577261;74;1920;-65
2023/05/05 07:49:38;;;;;;;;;;;24.60;47.90;;;;;;1582921;74;1264;-65
2023/05/05 07:51:41;;;;;;;;;;;24.50;47.90;;;;;;1569934;73;1306;-66
2023/05/05 07:53:42;;;;;;;;;;;24.60;47.80;;;;;;1569768;73;1146;-66
2023/05/05 07:55:45;;;;;;;;;;;24.50;47.90;;;;;;1578757;74;1469;-66
2023/05/05 07:57:48;;;;;;;;;;;24.60;47.80;;;;;;1581233;73;1283;-66
2023/05/05 07:59:50;;;;;;;;;;;24.50;47.90;;;;;;1576333;73;1286;-66
2023/05/05 08:01:52;;;;;;;;;;;24.50;48.00;;;;;;1570679;74;1284;-66
2023/05/05 08:03:54;;;;;;;;;;;24.50;48.00;;;;;;1571163;73;1358;-65
2023/05/05 08:05:56;;;;;;;;;;;24.50;48.00;;;;;;1577306;73;1284;-67
2023/05/05 08:07:58;;;;;;;;;;;24.50;48.10;;;;;;1576388;73;1926;-66
2023/05/05 08:09:59;;;;;;;;;;;24.50;48.20;;;;;;1562564;74;1475;-66
2023/05/05 08:12:01;;;;;;;;;;;24.40;48.10;;;;;;1576120;74;717;-66
2023/05/05 08:14:03;;;;;;;;;;;24.40;48.20;;;;;;1561018;74;686;-69
2023/05/05 08:16:05;;;;;;;;;;;24.30;48.20;;;;;;1559702;74;1192;-65
2023/05/05 08:18:07;;;;;;;;;;;24.30;48.20;;;;;;1561890;74;701;-66
2023/05/05 08:20:09;;;;;;;;;;;24.30;48.30;;;;;;1566425;75;749;-65
2023/05/05 08:22:11;;;;;;;;;;;24.30;48.30;;;;;;1570912;74;665;-66
2023/05/05 08:24:13;;;;;;;;;;;24.30;48.40;;;;;;1561241;74;1585;-66
2023/05/05 08:26:15;;;;;;;;;;;24.30;48.40;;;;;;1570863;74;1945;-68
2023/05/05 08:28:17;;;;;;;;;;;24.30;48.30;;;;;;1560185;74;715;-67
2023/05/05 08:30:20;;;;;;;;;;;24.30;48.30;;;;;;1563026;74;662;-68
2023/05/05 08:32:22;;;;;;;;;;;24.30;48.40;;;;;;1558662;74;788;-66
2023/05/05 08:34:24;;;;;;;;;;;24.30;48.40;;;;;;1561800;74;746;-66
2023/05/05 08:36:27;;;;;;;;;;;24.30;48.40;;;;;;1557356;74;1150;-67
2023/05/05 08:38:29;;;;;;;;;;;24.20;48.30;;;;;;1559689;74;1437;-68
2023/05/05 08:40:35;;;;;;;;;;;24.20;48.40;;;;;;1574852;74;764;-69
2023/05/05 08:42:37;;;;;;;;;;;24.20;48.40;;;;;;1564298;74;791;-66
2023/05/05 08:44:39;;;;;;;;;;;24.20;48.40;;;;;;1573813;74;719;-70
2023/05/05 08:46:41;;;;;;;;;;;24.30;48.40;;;;;;1571514;74;1919;-66
2023/05/05 08:48:43;;;;;;;;;;;24.20;48.30;;;;;;1562936;74;730;-66
2023/05/05 08:50:47;;;;;;;;;;;24.30;48.40;;;;;;1561356;75;826;-67
2023/05/05 08:52:49;;;;;;;;;;;24.20;48.30;;;;;;1569704;75;1511;-65
2023/05/05 08:54:52;;;;;;;;;;;24.30;48.40;;;;;;1563815;74;645;-68
2023/05/05 08:56:54;;;;;;;;;;;24.30;48.40;;;;;;1557762;74;2128;-66
2023/05/05 08:58:56;;;;;;;;;;;24.20;48.20;;;;;;1568122;74;759;-65
2023/05/05 09:01:00;;;;;;;;;;;24.20;48.20;;;;;;1566804;75;914;-66
2023/05/05 09:03:01;;;;;;;;;;;24.20;48.20;;;;;;1565479;74;1483;-67
2023/05/05 09:05:04;;;;;;;;;;;24.30;48.30;;;;;;1557410;74;1458;-68
2023/05/05 09:07:06;;;;;;;;;;;24.30;48.30;;;;;;1561354;74;1930;-66
2023/05/05 09:09:08;;;;;;;;;;;24.30;48.30;;;;;;1558757;74;1278;-66
2023/05/05 09:11:10;;;;;;;;;;;24.30;48.20;;;;;;1566308;74;706;-66
2023/05/05 09:13:12;;;;;;;;;;;24.30;48.10;;;;;;1561457;74;773;-69
2023/05/05 09:15:14;;;;;;;;;;;24.30;48.20;;;;;;1562474;74;1211;-68
2023/05/05 09:17:23;;;;;;;;;;;24.30;48.20;;;;;;1568789;74;770;-66
2023/05/05 09:19:25;;;;;;;;;;;24.30;48.20;;;;;;1564198;74;1526;-66
2023/05/05 09:21:28;;;;;;;;;;;24.20;48.00;;;;;;1560014;74;685;-67
2023/05/05 09:23:30;;;;;;;;;;;24.30;48.10;;;;;;1567063;74;748;-66
2023/05/05 09:25:32;;;;;;;;;;;24.30;48.10;;;;;;1564598;74;1147;-66
2023/05/05 09:27:37;;;;;;;;;;;24.30;48.00;;;;;;1559557;74;1916;-66
2023/05/05 09:29:39;;;;;;;;;;;24.30;48.00;;;;;;1566503;74;800;-67
2023/05/05 09:31:41;;;;;;;;;;;24.30;48.00;;;;;;1560399;74;810;-69
2023/05/05 09:33:43;;;;;;;;;;;24.30;47.90;;;;;;1565988;74;1558;-67
2023/05/05 09:35:54;;;;;;;;;;;24.30;48.00;;;;;;1557960;74;1154;-66
2023/05/05 09:37:56;;;;;;;;;;;24.30;47.90;;;;;;1566232;74;815;-69
2023/05/05 09:39:59;;;;;;;;;;;24.30;48.00;;;;;;1577687;74;1334;-68
2023/05/05 09:42:02;;;;;;;;;;;24.30;48.00;;;;;;1565258;74;808;-65
2023/05/05 09:44:03;;;;;;;;;;;24.30;47.90;;;;;;1569639;74;772;-66
2023/05/05 09:46:09;;;;;;;;;;;24.30;48.00;;;;;;1562731;74;1149;-66
2023/05/05 09:48:27;;;;;;;;;;;24.30;47.90;;;;;;1564418;74;1907;-69
2023/05/05 09:50:29;;;;;;;;;;;24.30;47.90;;;;;;1558046;74;1272;-66
2023/05/05 09:52:31;;;;;;;;;;;24.20;47.80;;;;;;1572616;74;1326;-65
2023/05/05 09:54:33;;;;;;;;;;;24.20;47.90;;;;;;1546143;75;1165;-66
2023/05/05 09:56:42;;;;;;;;;;;24.20;48.00;;;;;;1567356;74;1272;-67
2023/05/05 09:58:42;;;;;;;;;;;24.20;48.00;;;;;;1567586;74;1690;-67
2023/05/05 10:00:44;;;;;;;;;;;24.10;48.10;;;;;;1559033;74;1423;-69
2023/05/05 10:02:46;;;;;;;;;;;24.00;48.00;;;;;;1560617;74;1512;-66
2023/05/05 10:04:48;;;;;;;;;;;24.10;48.20;;;;;;1561208;74;1385;-67
2023/05/05 10:06:50;;;;;;;;;;;24.10;48.30;;;;;;1575508;74;1941;-69
2023/05/05 10:08:53;;;;;;;;;;;24.00;48.10;;;;;;1564278;74;1149;-65
2023/05/05 10:11:05;;;;;;;;;;;24.00;48.10;;;;;;1558244;74;1704;-66
2023/05/05 10:13:02;;;;;;;;;;;24.00;48.20;;;;;;1559583;74;1640;-66
2023/05/05 10:15:06;;;;;;;;;;;24.10;48.40;;;;;;1572988;73;225599;-68
2023/05/05 10:17:07;;;;;;;;;;;24.00;48.40;;;;;;1590987;73;1450;-67
2023/05/05 10:19:09;;;;;;;;;;;24.10;48.60;;;;;;1587148;73;1101;-70
2023/05/05 10:21:11;;;;;;;;;;;24.00;48.70;;;;;;1578153;73;1395;-69
2023/05/05 10:23:14;;;;;;;;;;;24.00;48.70;;;;;;1580203;73;1162;-68
2023/05/05 10:25:16;;;;;;;;;;;24.00;48.90;;;;;;1577573;73;1177;-68
2023/05/05 10:27:22;;;;;;;;;;;24.00;48.90;;;;;;1560889;74;1931;-66
2023/05/05 10:29:28;;;;;;;;;;;24.00;48.90;;;;;;1546373;74;1353;-69
2023/05/05 10:31:32;;;;;;;;;;;24.00;49.00;;;;;;1561249;74;1825;-69
2023/05/05 10:33:35;;;;;;;;;;;24.00;49.00;;;;;;1550584;75;1797;-68
2023/05/05 10:35:37;;;;;;;;;;;24.00;49.10;;;;;;1553320;75;1397;-69
2023/05/05 10:37:38;;;;;;;;;;;24.00;49.10;;;;;;1567033;74;1362;-69
2023/05/05 10:39:40;;;;;;;;;;;24.00;49.10;;;;;;1546471;74;1342;-70
2023/05/05 10:41:42;;;;;;;;;;;24.00;49.20;;;;;;1548784;74;1237;-68
2023/05/05 10:43:44;;;;;;;;;;;24.00;49.30;;;;;;1548329;74;1432;-68
2023/05/05 10:45:46;;;;;;;;;;;24.00;49.30;;;;;;1564928;74;1285;-68
2023/05/05 10:47:48;;;;;;;;;;;23.90;49.40;;;;;;1558852;74;1972;-69
2023/05/05 10:49:52;;;;;;;;;;;23.90;49.40;;;;;;1565068;74;1252;-68
2023/05/05 10:52:07;;;;;;;;;;;24.00;49.40;;;;;;1570497;74;1266;-68
2023/05/05 10:54:17;;;;;;;;;;;23.90;49.40;;;;;;1558292;74;1270;-70
2023/05/05 10:56:25;;;;;;;;;;;23.90;49.40;;;;;;1546165;74;1708;-69
2023/05/05 10:58:34;;;;;;;;;;;23.90;49.50;;;;;;1560492;74;1349;-69
2023/05/05 11:00:40;;;;;;;;;;;23.90;49.50;;;;;;1559481;74;1273;-70
2023/05/05 11:02:42;;;;;;;;;;;23.90;49.60;;;;;;1551584;75;1293;-70
2023/05/05 11:04:45;;;;;;;;;;;23.90;49.60;;;;;;1558478;74;1178;-71
2023/05/05 11:07:04;;;;;;;;;;;23.80;49.60;;;;;;1539584;76;1325;-70
2023/05/05 11:09:24;;;;;;;;;;;23.90;49.70;;;;;;1556298;74;1367;-68
2023/05/05 11:11:28;;;;;;;;;;;23.90;49.70;;;;;;1554964;75;1258;-69
2023/05/05 11:13:30;;;;;;;;;;;23.80;49.60;;;;;;1556503;74;1451;-70
2023/05/05 11:15:36;;;;;;;;;;;23.80;49.60;;;;;;1555761;74;1275;-70
2023/05/05 11:17:47;;;;;;;;;;;23.70;49.60;;;;;;1558170;74;1371;-73
2023/05/05 11:19:51;;;;;;;;;;;23.70;49.70;;;;;;1564891;75;1425;-69
2023/05/05 11:21:54;;;;;;;;;;;23.70;49.70;;;;;;1555968;75;1125;-69
2023/05/05 11:23:56;;;;;;;;;;;23.70;49.70;;;;;;1562418;74;1362;-73
2023/05/05 11:25:58;;;;;;;;;;;23.70;49.70;;;;;;1536356;75;1386;-70
2023/05/05 11:28:05;;;;;;;;;;;23.70;49.80;;;;;;1551786;74;1934;-69
2023/05/05 11:30:07;;;;;;;;;;;23.70;49.90;;;;;;1555715;74;1735;-68
2023/05/05 11:32:12;;;;;;;;;;;23.70;49.90;;;;;;1560982;74;1297;-69
2023/05/05 11:34:28;;;;;;;;;;;23.70;49.90;;;;;;1560432;75;1090;-71
2023/05/05 11:36:38;;;;;;;;;;;23.70;49.90;;;;;;1550031;74;1300;-71
2023/05/05 11:38:47;;;;;;;;;;;23.70;49.90;;;;;;1553145;75;1165;-68
2023/05/05 11:40:49;;;;;;;;;;;23.70;49.90;;;;;;1563117;74;1416;-69
2023/05/05 11:42:53;;;;;;;;;;;23.70;49.90;;;;;;1562914;74;1147;-69
2023/05/05 11:44:55;;;;;;;;;;;23.70;49.90;;;;;;1565971;74;1838;-68
2023/05/05 11:47:02;;;;;;;;;;;23.70;49.90;;;;;;1562629;75;1219;-67
2023/05/05 11:49:02;;;;;;;;;;;23.70;49.90;;;;;;1552486;75;1934;-69
2023/05/05 11:51:04;;;;;;;;;;;23.70;50.00;;;;;;1557734;74;1397;-69
2023/05/05 11:53:06;;;;;;;;;;;23.60;49.80;;;;;;1555624;74;1410;-70
2023/05/05 11:55:08;;;;;;;;;;;23.60;49.90;;;;;;1555025;74;1362;-70
2023/05/05 11:57:10;;;;;;;;;;;23.70;50.00;;;;;;1559570;74;1361;-66
2023/05/05 11:59:12;;;;;;;;;;;23.60;49.90;;;;;;1561569;74;1138;-68
2023/05/05 12:01:14;;;;;;;;;;;23.60;49.50;;;;;;1567254;74;1247;-68
2023/05/05 12:03:16;;;;;;;;;;;23.60;49.40;;;;;;1555403;75;1274;-69
2023/05/05 12:05:20;;;;;;;;;;;23.60;49.40;;;;;;1553613;75;1297;-71
2023/05/05 12:07:29;;;;;;;;;;;23.60;49.40;;;;;;1550560;74;1186;-69
2023/05/05 12:09:31;;;;;;;;;;;23.60;49.50;;;;;;1553207;74;1414;-69
2023/05/05 12:11:33;;;;;;;;;;;23.60;49.50;;;;;;1550427;75;1337;-72